createdAt,value
2018-01-22T00:02:03.864Z,87.40
2018-01-22T00:04:31.334Z,88.30
2018-01-22T00:06:58.780Z,87.40
2018-01-22T00:09:26.228Z,87.40
2018-01-22T00:11:53.692Z,87.30
2018-01-22T00:14:21.200Z,87.40
2018-01-22T00:16:49.371Z,87.80
2018-01-22T00:19:16.822Z,87.70
2018-01-22T00:21:44.280Z,87.50
2018-01-22T00:24:11.732Z,87.60
2018-01-22T00:26:39.196Z,88.10
2018-01-22T00:29:06.649Z,88.30
2018-01-22T00:31:34.103Z,88.30
2018-01-22T00:34:17.035Z,89.20
2018-01-22T00:36:44.499Z,88.50
2018-01-22T00:39:11.957Z,88.00
2018-01-22T00:41:39.403Z,88.20
2018-01-22T00:44:07.630Z,88.70
2018-01-22T00:46:35.084Z,88.70
2018-01-22T00:49:02.552Z,88.80
2018-01-22T00:51:30.037Z,89.20
2018-01-22T00:53:57.488Z,89.30
2018-01-22T00:56:24.938Z,89.50
2018-01-22T00:58:53.168Z,89.50
2018-01-22T01:01:21.395Z,89.20
2018-01-22T01:03:48.841Z,89.20
2018-01-22T01:06:16.322Z,89.30
2018-01-22T01:08:43.787Z,89.30
2018-01-22T01:11:11.241Z,89.60
2018-01-22T01:13:38.694Z,89.60
2018-01-22T01:16:06.144Z,89.60
2018-01-22T01:18:33.607Z,89.70
2018-01-22T01:21:01.046Z,89.70
2018-01-22T01:23:29.267Z,89.90
2018-01-22T01:25:56.715Z,89.80
2018-01-22T01:28:24.181Z,90.00
2018-01-22T01:30:51.628Z,90.10
2018-01-22T01:33:19.084Z,90.10
2018-01-22T01:35:47.292Z,90.10
2018-01-22T01:38:14.759Z,90.20
2018-01-22T01:40:42.207Z,90.40
2018-01-22T01:43:09.664Z,90.30
2018-01-22T01:45:37.112Z,90.30
2018-01-22T01:48:04.576Z,90.30
2018-01-22T01:50:32.785Z,90.30
2018-01-22T01:53:00.251Z,90.30
2018-01-22T01:55:27.696Z,90.50
2018-01-22T01:57:55.158Z,90.50
2018-01-22T02:00:22.615Z,90.60
2018-01-22T02:02:50.080Z,90.70
2018-01-22T02:05:17.542Z,90.80
2018-01-22T02:07:45.005Z,90.80
2018-01-22T02:10:12.498Z,90.80
2018-01-22T02:12:39.935Z,90.80
2018-01-22T02:15:07.390Z,90.80
2018-01-22T02:17:34.840Z,90.90
2018-01-22T02:20:03.063Z,91.00
2018-01-22T02:22:30.517Z,91.00
2018-01-22T02:24:57.981Z,91.10
2018-01-22T02:27:25.427Z,91.30
2018-01-22T02:29:52.884Z,91.30
2018-01-22T02:32:20.332Z,91.20
2018-01-22T02:34:47.793Z,91.20
2018-01-22T02:37:15.240Z,91.30
2018-01-22T02:39:43.488Z,91.50
2018-01-22T02:42:10.939Z,91.50
2018-01-22T02:44:38.417Z,92.00
2018-01-22T02:47:05.858Z,91.60
2018-01-22T02:49:34.141Z,91.90
2018-01-22T02:52:01.575Z,91.90
2018-01-22T02:54:29.028Z,91.90
2018-01-22T02:56:56.469Z,92.00
2018-01-22T02:59:24.695Z,92.10
2018-01-22T03:01:52.144Z,92.10
2018-01-22T03:04:19.597Z,92.20
2018-01-22T03:06:47.067Z,92.20
2018-01-22T03:09:14.520Z,92.40
2018-01-22T03:11:41.966Z,92.50
2018-01-22T03:14:09.427Z,92.50
2018-01-22T03:16:36.896Z,92.60
2018-01-22T03:19:04.368Z,92.60
2018-01-22T03:21:31.834Z,92.60
2018-01-22T03:23:59.276Z,92.50
2018-01-22T03:26:26.740Z,92.60
2018-01-22T03:28:54.184Z,92.80
2018-01-22T03:31:22.413Z,92.80
2018-01-22T03:33:49.880Z,92.80
2018-01-22T03:36:17.334Z,92.80
2018-01-22T03:38:44.792Z,92.90
2018-01-22T03:41:12.260Z,92.90
2018-01-22T03:43:39.708Z,93.00
2018-01-22T03:46:07.168Z,93.20
2018-01-22T03:48:34.617Z,93.10
2018-01-22T03:51:02.081Z,93.10
2018-01-22T03:53:29.530Z,93.30
2018-01-22T03:55:56.984Z,93.00
2018-01-22T03:58:28.956Z,92.90
2018-01-22T04:00:57.177Z,93.00
2018-01-22T04:03:24.660Z,93.00
2018-01-22T04:05:52.111Z,93.10
2018-01-22T04:08:20.322Z,93.20
2018-01-22T04:10:48.540Z,93.20
2018-01-22T04:13:15.994Z,93.20
2018-01-22T04:15:43.432Z,93.10
2018-01-22T04:18:11.653Z,92.90
2018-01-22T04:20:39.136Z,92.90
2018-01-22T04:23:06.594Z,93.20
2018-01-22T04:25:34.052Z,93.20
2018-01-22T04:28:01.495Z,93.10
2018-01-22T04:30:28.971Z,93.20
2018-01-22T04:32:56.416Z,93.20
2018-01-22T04:35:23.859Z,93.20
2018-01-22T04:37:51.320Z,93.20
2018-01-22T04:40:18.780Z,93.20
2018-01-22T04:42:47.001Z,93.20
2018-01-22T04:45:14.476Z,93.20
2018-01-22T04:47:41.927Z,93.20
2018-01-22T04:50:09.389Z,93.30
2018-01-22T04:52:36.836Z,93.10
2018-01-22T04:55:04.284Z,93.20
2018-01-22T04:57:31.730Z,93.10
2018-01-22T04:59:59.940Z,93.30
2018-01-22T05:02:27.393Z,93.20
2018-01-22T05:04:54.846Z,93.40
2018-01-22T05:07:22.296Z,93.40
2018-01-22T05:09:50.507Z,93.50
2018-01-22T05:12:17.980Z,93.50
2018-01-22T05:14:45.438Z,93.40
2018-01-22T05:17:12.891Z,93.50
2018-01-22T05:19:40.348Z,93.10
2018-01-22T05:22:07.808Z,93.30
2018-01-22T05:24:35.259Z,93.30
2018-01-22T05:27:02.720Z,93.30
2018-01-22T05:29:30.173Z,93.30
2018-01-22T05:31:58.401Z,93.40
2018-01-22T05:34:25.866Z,93.40
2018-01-22T05:36:53.325Z,93.50
2018-01-22T05:39:20.770Z,93.20
2018-01-22T05:41:48.222Z,93.50
2018-01-22T05:44:15.663Z,93.30
2018-01-22T05:46:43.908Z,93.20
2018-01-22T05:49:11.372Z,93.50
2018-01-22T05:51:38.824Z,93.40
2018-01-22T05:54:06.293Z,93.40
2018-01-22T05:56:33.742Z,93.10
2018-01-22T05:59:01.200Z,93.30
2018-01-22T06:01:28.654Z,93.30
2018-01-22T06:03:56.099Z,93.40
2018-01-22T06:06:23.548Z,93.30
2018-01-22T06:08:51.032Z,93.10
2018-01-22T06:11:18.485Z,93.30
2018-01-22T06:13:45.946Z,93.30
2018-01-22T06:16:13.416Z,93.30
2018-01-22T06:18:41.783Z,93.10
2018-01-22T06:21:09.230Z,93.30
2018-01-22T06:23:37.459Z,93.40
2018-01-22T06:26:04.900Z,93.30
2018-01-22T06:28:32.357Z,93.40
2018-01-22T06:30:59.818Z,93.40
2018-01-22T06:33:27.282Z,93.30
2018-01-22T06:35:54.738Z,93.50
2018-01-22T06:38:22.189Z,93.30
2018-01-22T06:40:50.400Z,93.40
2018-01-22T06:43:17.848Z,93.40
2018-01-22T06:45:45.304Z,93.50
2018-01-22T06:48:12.773Z,93.50
2018-01-22T06:50:40.216Z,93.60
2018-01-22T06:53:08.446Z,93.60
2018-01-22T06:55:35.888Z,93.60
2018-01-22T06:58:03.348Z,93.50
2018-01-22T07:03:04.660Z,93.60
2018-01-22T07:05:32.096Z,93.90
2018-01-22T07:07:59.557Z,93.60
2018-01-22T07:10:26.998Z,93.40
2018-01-22T07:12:54.445Z,93.70
2018-01-22T07:15:21.893Z,93.70
2018-01-22T07:17:50.104Z,93.70
2018-01-22T07:20:17.558Z,93.70
2018-01-22T07:22:45.007Z,93.70
2018-01-22T07:25:13.241Z,93.60
2018-01-22T07:27:40.690Z,93.60
2018-01-22T07:30:08.153Z,93.70
2018-01-22T07:32:35.612Z,93.80
2018-01-22T07:35:03.077Z,93.60
2018-01-22T07:37:30.517Z,93.70
2018-01-22T07:39:57.974Z,93.50
2018-01-22T07:42:25.432Z,93.70
2018-01-22T07:44:52.889Z,93.70
2018-01-22T07:47:20.344Z,93.80
2018-01-22T07:49:48.570Z,93.70
2018-01-22T07:52:16.017Z,93.70
2018-01-22T07:54:43.476Z,93.70
2018-01-22T07:57:10.928Z,93.70
2018-01-22T07:59:38.401Z,93.70
2018-01-22T08:02:05.846Z,93.70
2018-01-22T08:04:33.308Z,93.70
2018-01-22T08:07:00.752Z,93.80
2018-01-22T08:09:28.980Z,93.70
2018-01-22T08:11:56.424Z,93.70
2018-01-22T08:14:23.896Z,93.80
2018-01-22T08:16:51.345Z,93.60
2018-01-22T08:19:18.809Z,93.70
2018-01-22T08:21:46.270Z,93.90
2018-01-22T08:24:13.716Z,93.70
2018-01-22T08:26:41.190Z,93.90
2018-01-22T08:29:08.642Z,93.70
2018-01-22T08:31:36.864Z,93.80
2018-01-22T08:34:04.441Z,93.80
2018-01-22T08:36:31.896Z,94.00
2018-01-22T08:38:59.360Z,94.00
2018-01-22T08:41:26.840Z,93.90
2018-01-22T08:43:54.296Z,94.00
2018-01-22T08:46:21.756Z,93.90
2018-01-22T08:48:49.215Z,93.70
2018-01-22T08:51:16.672Z,93.80
2018-01-22T08:53:44.124Z,93.80
2018-01-22T08:56:11.587Z,93.90
2018-01-22T08:58:39.040Z,94.10
2018-01-22T09:01:06.496Z,93.80
2018-01-22T09:03:33.944Z,93.80
2018-01-22T09:06:01.409Z,93.90
2018-01-22T09:08:28.870Z,93.90
2018-01-22T09:10:56.336Z,93.90
2018-01-22T09:13:23.775Z,93.90
2018-01-22T09:15:52.019Z,93.80
2018-01-22T09:18:19.465Z,93.80
2018-01-22T09:20:46.920Z,93.70
2018-01-22T09:23:14.370Z,93.90
2018-01-22T09:25:41.843Z,93.70
2018-01-22T09:28:09.286Z,93.70
2018-01-22T09:30:36.731Z,93.70
2018-01-22T09:33:04.192Z,93.70
2018-01-22T09:35:31.647Z,93.70
2018-01-22T09:37:59.879Z,93.80
2018-01-22T09:40:27.324Z,93.80
2018-01-22T09:42:54.773Z,93.60
2018-01-22T09:45:22.220Z,93.70
2018-01-22T09:47:50.438Z,93.80
2018-01-22T09:50:17.892Z,93.80
2018-01-22T09:52:45.352Z,93.70
2018-01-22T09:55:12.817Z,93.80
2018-01-22T09:57:40.277Z,93.90
2018-01-22T10:00:07.727Z,93.80
2018-01-22T10:02:35.198Z,93.80
2018-01-22T10:05:02.633Z,94.00
2018-01-22T10:07:30.857Z,94.00
2018-01-22T10:09:58.314Z,93.90
2018-01-22T10:12:25.768Z,94.00
2018-01-22T10:14:53.224Z,94.00
2018-01-22T10:17:20.689Z,94.10
2018-01-22T10:19:48.140Z,94.10
2018-01-22T10:22:15.615Z,94.10
2018-01-22T10:24:43.066Z,94.10
2018-01-22T10:27:10.530Z,94.20
2018-01-22T10:29:37.987Z,94.20
2018-01-22T10:32:05.440Z,94.10
2018-01-22T10:34:32.886Z,94.20
2018-01-22T10:37:01.095Z,94.40
2018-01-22T10:39:28.556Z,94.40
2018-01-22T10:41:56.025Z,94.30
2018-01-22T10:44:23.481Z,94.50
2018-01-22T10:46:50.920Z,94.50
2018-01-22T10:49:19.153Z,94.40
2018-01-22T10:51:46.587Z,94.40
2018-01-22T10:54:14.112Z,94.50
2018-01-22T10:56:41.552Z,94.50
2018-01-22T10:59:09.004Z,94.50
2018-01-22T11:01:37.206Z,94.40
2018-01-22T11:04:04.688Z,94.40
2018-01-22T11:06:32.913Z,94.50
2018-01-22T11:09:00.377Z,94.50
2018-01-22T11:11:27.838Z,94.40
2018-01-22T11:13:55.330Z,94.50
2018-01-22T11:16:22.775Z,94.40
2018-01-22T11:18:50.236Z,94.50
2018-01-22T11:21:17.690Z,94.50
2018-01-22T11:23:45.142Z,94.50
2018-01-22T11:26:12.580Z,94.70
2018-01-22T11:28:40.038Z,94.50
2018-01-22T11:31:08.257Z,94.50
2018-01-22T11:33:35.708Z,94.50
2018-01-22T11:36:03.156Z,94.60
2018-01-22T11:38:30.609Z,94.40
2018-01-22T11:40:58.048Z,94.60
2018-01-22T11:43:26.288Z,94.10
2018-01-22T11:45:53.718Z,94.00
2018-01-22T11:48:21.187Z,94.10
2018-01-22T11:50:48.648Z,94.10
2018-01-22T11:53:16.137Z,94.00
2018-01-22T11:55:43.617Z,93.90
2018-01-22T11:58:11.072Z,94.10
2018-01-22T12:00:38.525Z,94.00
2018-01-22T12:03:05.987Z,93.90
2018-01-22T12:05:33.432Z,94.10
2018-01-22T12:08:00.913Z,93.90
2018-01-22T12:10:28.361Z,94.10
2018-01-22T12:12:55.817Z,93.80
2018-01-22T12:15:23.275Z,93.80
2018-01-22T12:17:51.656Z,93.80
2018-01-22T12:20:19.891Z,93.80
2018-01-22T12:22:47.341Z,93.80
2018-01-22T12:25:14.816Z,93.80
2018-01-22T12:27:42.264Z,93.80
2018-01-22T12:30:09.729Z,93.80
2018-01-22T12:32:37.167Z,93.70
2018-01-22T12:35:04.625Z,93.80
2018-01-22T12:37:32.084Z,93.80
2018-01-22T12:39:59.550Z,94.00
2018-01-22T12:42:27.372Z,93.90
2018-01-22T12:44:54.832Z,93.90
2018-01-22T12:47:22.281Z,94.00
2018-01-22T12:49:49.792Z,94.00
2018-01-22T12:52:17.246Z,94.10
2018-01-22T12:54:44.884Z,94.00
2018-01-22T12:57:12.366Z,94.00
2018-01-22T12:59:40.598Z,94.00
2018-01-22T13:02:08.048Z,94.00
2018-01-22T13:04:35.611Z,94.10
2018-01-22T13:07:03.849Z,94.20
2018-01-22T13:09:32.073Z,94.20
2018-01-22T13:11:59.547Z,94.20
2018-01-22T13:14:26.995Z,94.30
2018-01-22T13:16:54.465Z,94.30
2018-01-22T13:19:21.920Z,94.30
2018-01-22T13:21:49.393Z,94.20
2018-01-22T13:24:16.844Z,94.20
2018-01-22T13:26:44.319Z,94.30
2018-01-22T13:29:11.807Z,94.30
2018-01-22T13:31:39.256Z,94.40
2018-01-22T13:34:06.736Z,94.50
2018-01-22T13:36:34.196Z,94.40
2018-01-22T13:39:02.412Z,95.00
2018-01-22T13:41:29.872Z,94.60
2018-01-22T13:43:57.326Z,94.90
2018-01-22T13:46:24.771Z,94.70
2018-01-22T13:48:53.012Z,96.00
2018-01-22T13:51:20.476Z,96.00
2018-01-22T13:53:47.979Z,96.20
2018-01-22T13:56:16.196Z,97.20
2018-01-22T13:58:43.645Z,97.20
2018-01-22T14:01:11.120Z,97.40
2018-01-22T14:03:38.589Z,97.30
2018-01-22T14:06:06.055Z,97.30
2018-01-22T14:08:33.512Z,97.70
2018-01-22T14:11:00.973Z,97.90
2018-01-22T14:13:28.420Z,97.90
2018-01-22T14:15:55.920Z,97.70
2018-01-22T14:18:23.419Z,97.50
2018-01-22T14:20:50.838Z,98.00
2018-01-22T14:23:18.292Z,97.60
2018-01-22T14:25:45.761Z,97.60
2018-01-22T14:28:13.216Z,97.70
2018-01-22T14:30:40.682Z,97.60
2018-01-22T14:33:08.900Z,97.10
2018-01-22T14:35:36.351Z,97.10
2018-01-22T14:38:03.799Z,97.30
2018-01-22T14:40:31.245Z,97.60
2018-01-22T14:42:58.700Z,97.60
2018-01-22T14:45:26.154Z,96.70
2018-01-22T14:47:53.610Z,97.40
2018-01-22T14:50:21.088Z,98.00
2018-01-22T14:52:48.560Z,97.80
2018-01-22T14:55:16.024Z,97.60
2018-01-22T14:57:43.484Z,97.60
2018-01-22T15:00:10.933Z,97.50
2018-01-22T15:02:38.396Z,97.60
2018-01-22T15:05:05.869Z,97.60
2018-01-22T15:07:33.333Z,97.60
2018-01-22T15:10:00.785Z,97.70
2018-01-22T15:12:28.237Z,97.80
2018-01-22T15:14:55.701Z,97.50
2018-01-22T15:17:23.159Z,97.60
2018-01-22T15:19:50.606Z,97.70
2018-01-22T15:22:18.065Z,97.50
2018-01-22T15:24:46.269Z,97.10
2018-01-22T15:27:13.725Z,97.10
2018-01-22T15:29:41.173Z,97.40
2018-01-22T15:32:08.700Z,97.20
2018-01-22T15:34:36.124Z,97.20
2018-01-22T15:37:03.576Z,97.40
2018-01-22T15:39:31.032Z,97.40
2018-01-22T15:41:58.496Z,97.70
2018-01-22T15:44:25.964Z,97.30
2018-01-22T15:46:53.446Z,97.40
2018-01-22T15:49:20.909Z,97.30
2018-01-22T15:51:48.373Z,97.70
2018-01-22T15:54:15.835Z,97.40
2018-01-22T15:56:43.297Z,97.30
2018-01-22T15:59:10.767Z,97.30
2018-01-22T16:01:38.992Z,97.40
2018-01-22T16:04:07.216Z,97.40
2018-01-22T16:06:34.678Z,97.40
2018-01-22T16:09:02.147Z,97.10
2018-01-22T16:11:29.608Z,97.10
2018-01-22T16:13:57.067Z,97.20
2018-01-22T16:16:24.533Z,97.40
2018-01-22T16:18:52.765Z,97.60
2018-01-22T16:21:20.988Z,97.60
2018-01-22T16:23:48.451Z,97.60
2018-01-22T16:26:15.900Z,97.60
2018-01-22T16:28:43.376Z,97.60
2018-01-22T16:31:10.840Z,97.60
2018-01-22T16:33:38.300Z,97.50
2018-01-22T16:36:05.760Z,97.50
2018-01-22T16:38:33.223Z,97.60
2018-01-22T16:41:00.690Z,97.70
2018-01-22T16:43:28.140Z,97.80
2018-01-22T16:45:55.610Z,97.90
2018-01-22T16:48:23.081Z,98.10
2018-01-22T16:50:50.537Z,98.10
2018-01-22T16:53:17.993Z,98.20
2018-01-22T16:55:45.476Z,98.10
2018-01-22T16:58:12.930Z,98.00
2018-01-22T17:00:40.396Z,97.80
2018-01-22T17:03:07.856Z,97.80
2018-01-22T17:05:35.321Z,97.70
2018-01-22T17:08:02.772Z,97.60
2018-01-22T17:10:30.245Z,97.30
2018-01-22T17:12:57.706Z,97.10
2018-01-22T17:15:25.161Z,97.20
2018-01-22T17:17:53.379Z,97.30
2018-01-22T17:20:21.610Z,97.20
2018-01-22T17:22:49.236Z,97.10
2018-01-22T17:25:17.465Z,97.20
2018-01-22T17:27:44.933Z,97.20
2018-01-22T17:30:12.396Z,97.00
2018-01-22T17:32:40.605Z,97.00
2018-01-22T17:35:08.069Z,97.00
2018-01-22T17:37:35.529Z,97.20
2018-01-22T17:40:02.998Z,96.90
2018-01-22T17:42:30.444Z,96.70
2018-01-22T17:44:57.919Z,96.70
2018-01-22T17:47:25.376Z,96.70
2018-01-22T17:49:52.903Z,96.60
2018-01-22T17:52:20.352Z,96.70
2018-01-22T17:54:47.858Z,96.40
2018-01-22T17:57:15.303Z,96.30
2018-01-22T17:59:43.757Z,96.20
2018-01-22T18:02:11.220Z,96.20
2018-01-22T18:04:38.682Z,96.30
2018-01-22T18:07:06.138Z,96.30
2018-01-22T18:09:33.619Z,96.30
2018-01-22T18:12:01.076Z,96.30
2018-01-22T18:14:28.537Z,96.20
2018-01-22T18:16:55.997Z,96.30
2018-01-22T18:19:23.452Z,96.20
2018-01-22T18:21:50.958Z,96.20
2018-01-22T18:24:18.408Z,96.30
2018-01-22T18:26:46.869Z,96.20
2018-01-22T18:29:14.336Z,96.20
2018-01-22T18:31:41.863Z,96.10
2018-01-22T18:34:10.133Z,95.70
2018-01-22T18:36:37.585Z,95.70
2018-01-22T18:39:05.042Z,95.60
2018-01-22T18:41:32.508Z,95.60
2018-01-22T18:43:59.967Z,95.50
2018-01-22T18:46:27.431Z,95.30
2018-01-22T18:48:54.892Z,95.20
2018-01-22T18:51:22.345Z,95.10
2018-01-22T18:53:50.775Z,95.00
2018-01-22T18:56:19.041Z,94.80
2018-01-22T18:58:46.487Z,94.70
2018-01-22T19:01:13.953Z,94.70
2018-01-22T19:03:41.450Z,94.60
2018-01-22T19:06:09.732Z,94.50
2018-01-22T19:08:37.184Z,94.50
2018-01-22T19:11:05.408Z,94.50
2018-01-22T19:13:33.850Z,94.50
2018-01-22T19:16:02.072Z,94.40
2018-01-22T19:18:30.299Z,94.50
2018-01-22T19:20:58.545Z,94.40
2018-01-22T19:23:26.049Z,94.30
2018-01-22T19:25:54.267Z,94.40
2018-01-22T19:28:21.708Z,94.40
2018-01-22T19:30:49.220Z,94.60
2018-01-22T19:33:16.716Z,94.60
2018-01-22T19:35:44.926Z,94.50
2018-01-22T19:38:12.392Z,94.50
2018-01-22T19:40:39.895Z,94.70
2018-01-22T19:43:07.392Z,94.60
2018-01-22T19:45:35.608Z,94.50
2018-01-22T19:48:03.946Z,94.50
2018-01-22T19:50:32.152Z,94.50
2018-01-22T19:52:59.699Z,94.50
2018-01-22T19:55:27.957Z,94.40
2018-01-22T19:57:56.415Z,94.40
2018-01-22T20:00:23.906Z,94.20
2018-01-22T20:02:51.395Z,94.20
2018-01-22T20:05:19.651Z,94.00
2018-01-22T20:07:47.161Z,94.00
2018-01-22T20:10:14.642Z,94.10
2018-01-22T20:12:42.167Z,94.10
2018-01-22T20:15:10.423Z,94.00
2018-01-22T20:17:37.935Z,94.00
2018-01-22T20:20:05.434Z,94.40
2018-01-22T20:22:32.942Z,94.30
2018-01-22T20:25:00.430Z,94.20
2018-01-22T20:27:27.889Z,94.00
2018-01-22T20:29:55.356Z,94.00
2018-01-22T20:32:22.868Z,93.50
2018-01-22T20:34:50.323Z,93.00
2018-01-22T20:37:18.599Z,92.90
2018-01-22T20:39:46.091Z,92.90
2018-01-22T20:42:14.343Z,92.70
2018-01-22T20:44:41.854Z,92.60
2018-01-22T20:47:09.353Z,92.60
2018-01-22T20:49:36.806Z,93.00
2018-01-22T20:52:04.294Z,93.00
2018-01-22T20:54:31.815Z,92.70
2018-01-22T20:56:59.264Z,92.60
2018-01-22T20:59:26.834Z,91.80
2018-01-22T21:01:54.328Z,92.10
2018-01-22T21:04:21.830Z,92.10
2018-01-22T21:06:50.041Z,92.20
2018-01-22T21:09:17.504Z,92.20
2018-01-22T21:11:45.009Z,92.50
2018-01-22T21:14:12.468Z,92.10
2018-01-22T21:16:39.915Z,91.70
2018-01-22T21:19:07.427Z,91.60
2018-01-22T21:21:35.623Z,91.00
2018-01-22T21:24:03.134Z,91.00
2018-01-22T21:26:30.573Z,91.60
2018-01-22T21:28:58.066Z,90.80
2018-01-22T21:31:25.521Z,91.10
2018-01-22T21:33:53.749Z,90.70
2018-01-22T21:36:21.198Z,90.80
2018-01-22T21:38:48.664Z,91.30
2018-01-22T21:41:17.880Z,91.50
2018-01-22T21:43:45.359Z,91.30
2018-01-22T21:46:12.822Z,91.10
2018-01-22T21:48:40.276Z,91.10
2018-01-22T21:51:07.757Z,91.00
2018-01-22T21:53:35.213Z,90.60
2018-01-22T21:56:02.675Z,91.00
2018-01-22T21:58:30.124Z,91.10
2018-01-22T22:00:57.647Z,91.00
2018-01-22T22:03:25.136Z,91.00
2018-01-22T22:05:52.644Z,91.50
2018-01-22T22:08:20.088Z,90.80
2018-01-22T22:10:47.544Z,90.00
2018-01-22T22:13:15.002Z,89.90
2018-01-22T22:15:42.510Z,90.30
2018-01-22T22:18:09.968Z,89.70
2018-01-22T22:20:37.424Z,88.70
2018-01-22T22:23:04.953Z,89.80
2018-01-22T22:25:32.401Z,88.40
2018-01-22T22:27:59.849Z,87.50
2018-01-22T22:30:28.077Z,89.20
2018-01-22T22:32:55.548Z,88.40
2018-01-22T22:35:23.051Z,89.00
2018-01-22T22:37:51.271Z,88.90
2018-01-22T22:40:18.745Z,88.90
2018-01-22T22:42:46.213Z,89.00
2018-01-22T22:45:13.667Z,90.10
2018-01-22T22:47:41.124Z,90.20
2018-01-22T22:50:08.593Z,89.70
2018-01-22T22:52:36.816Z,89.60
2018-01-22T22:55:05.059Z,89.20
2018-01-22T22:57:32.517Z,89.20
2018-01-22T22:59:59.956Z,90.00
2018-01-22T23:02:27.420Z,89.90
2018-01-22T23:04:54.872Z,90.60
2018-01-22T23:07:23.097Z,89.60
2018-01-22T23:09:50.556Z,89.60
2018-01-22T23:12:18.029Z,89.60
2018-01-22T23:14:45.464Z,90.00
2018-01-22T23:17:12.925Z,90.00
2018-01-22T23:19:40.383Z,89.60
2018-01-22T23:22:07.861Z,89.10
2018-01-22T23:24:35.320Z,88.50
2018-01-22T23:27:02.784Z,88.20
2018-01-22T23:29:30.236Z,88.50
2018-01-22T23:31:57.684Z,88.70
2018-01-22T23:34:25.135Z,88.40
2018-01-22T23:36:53.378Z,88.80
2018-01-22T23:39:20.837Z,88.80
2018-01-22T23:41:48.297Z,88.90
2018-01-22T23:44:15.754Z,88.80
2018-01-22T23:46:43.214Z,90.00
2018-01-22T23:49:10.664Z,89.00
2018-01-22T23:51:38.116Z,88.90
2018-01-22T23:54:05.572Z,88.90
2018-01-22T23:56:33.041Z,89.40
2018-01-22T23:59:00.485Z,89.20
